createdAt,value
2022-08-04T00:01:05.691Z,53.73
2022-08-04T00:03:17.304Z,53.79
2022-08-04T00:05:35.328Z,53.97
2022-08-04T00:07:45.151Z,54.10
2022-08-04T00:09:51.930Z,54.32
2022-08-04T00:12:00.291Z,54.19
2022-08-04T00:14:05.688Z,53.87
2022-08-04T00:16:09.848Z,53.89
2022-08-04T00:18:16.884Z,53.84
2022-08-04T00:20:20.849Z,53.74
2022-08-04T00:22:27.592Z,53.87
2022-08-04T00:24:31.178Z,54.02
2022-08-04T00:26:34.255Z,54.06
2022-08-04T00:28:37.372Z,53.91
2022-08-04T00:30:42.075Z,53.95
2022-08-04T00:32:45.250Z,54.21
2022-08-04T00:34:49.419Z,54.22
2022-08-04T00:36:56.756Z,54.40
2022-08-04T00:39:00.115Z,54.46
2022-08-04T00:41:12.288Z,54.41
2022-08-04T00:43:20.825Z,54.55
2022-08-04T00:46:15.583Z,54.54
2022-08-04T00:48:29.004Z,54.35
2022-08-04T00:50:43.014Z,54.44
2022-08-04T00:52:57.731Z,54.39
2022-08-04T00:55:22.372Z,54.46
2022-08-04T00:58:02.750Z,54.75
2022-08-04T01:00:10.504Z,54.82
2022-08-04T01:02:24.399Z,54.85
2022-08-04T01:04:43.047Z,54.77
2022-08-04T01:07:00.977Z,54.81
2022-08-04T01:09:21.328Z,54.82
2022-08-04T01:11:56.952Z,54.79
2022-08-04T01:14:45.724Z,54.90
2022-08-04T01:16:51.980Z,54.66
2022-08-04T01:19:00.801Z,54.69
2022-08-04T01:21:39.797Z,54.67
2022-08-04T01:24:10.032Z,54.98
2022-08-04T01:26:43.797Z,55.24
2022-08-04T01:29:04.700Z,55.37
2022-08-04T01:31:18.540Z,55.66
2022-08-04T01:33:26.142Z,55.65
2022-08-04T01:35:46.678Z,55.76
2022-08-04T01:38:00.790Z,55.75
2022-08-04T01:40:08.166Z,55.75
2022-08-04T01:42:12.813Z,55.85
2022-08-04T01:44:36.899Z,55.85
2022-08-04T01:46:40.832Z,55.82
2022-08-04T01:48:46.837Z,55.75
2022-08-04T01:50:52.920Z,55.58
2022-08-04T01:52:55.843Z,55.44
2022-08-04T01:55:00.532Z,55.33
2022-08-04T01:57:37.713Z,55.48
2022-08-04T01:59:31.269Z,55.39
2022-08-04T02:01:36.548Z,55.39
2022-08-04T02:04:20.631Z,55.52
2022-08-04T02:06:16.735Z,55.58
2022-08-04T02:08:25.588Z,55.57
2022-08-04T02:10:52.793Z,55.63
2022-08-04T02:13:07.547Z,55.66
2022-08-04T02:15:18.228Z,55.71
2022-08-04T02:17:31.321Z,55.78
2022-08-04T02:19:43.771Z,55.89
2022-08-04T02:21:54.963Z,55.87
2022-08-04T02:24:00.974Z,56.00
2022-08-04T02:26:05.888Z,56.03
2022-08-04T02:28:28.602Z,56.35
2022-08-04T02:30:46.198Z,56.54
2022-08-04T02:32:51.543Z,56.58
2022-08-04T02:34:59.938Z,56.95
2022-08-04T02:37:04.521Z,57.05
2022-08-04T02:39:09.014Z,57.29
2022-08-04T02:41:16.535Z,57.41
2022-08-04T02:43:51.758Z,57.59
2022-08-04T02:45:48.223Z,57.61
2022-08-04T02:48:29.477Z,57.62
2022-08-04T02:50:28.986Z,57.47
2022-08-04T02:52:33.746Z,57.33
2022-08-04T02:54:44.229Z,57.31
2022-08-04T02:56:50.219Z,57.32
2022-08-04T02:58:58.439Z,57.21
2022-08-04T03:01:01.315Z,57.07
2022-08-04T03:03:20.319Z,57.08
2022-08-04T03:05:27.204Z,57.22
2022-08-04T03:08:04.620Z,57.43
2022-08-04T03:10:46.932Z,57.40
2022-08-04T03:13:11.378Z,57.69
2022-08-04T03:15:35.133Z,57.80
2022-08-04T03:18:15.322Z,58.12
2022-08-04T03:21:01.052Z,58.29
2022-08-04T03:23:29.176Z,58.38
2022-08-04T03:26:15.669Z,58.33
2022-08-04T03:29:05.021Z,58.48
2022-08-04T03:31:53.621Z,58.47
2022-08-04T03:34:12.209Z,58.47
2022-08-04T03:36:53.851Z,58.44
2022-08-04T03:39:20.871Z,58.40
2022-08-04T03:41:51.848Z,58.47
2022-08-04T03:44:27.790Z,58.49
2022-08-04T03:46:53.387Z,58.73
2022-08-04T03:49:36.112Z,59.06
2022-08-04T03:51:45.881Z,59.22
2022-08-04T03:54:08.213Z,59.43
2022-08-04T03:56:34.417Z,59.37
2022-08-04T03:58:51.270Z,59.61
2022-08-04T04:01:11.067Z,59.79
2022-08-04T04:03:40.284Z,59.96
2022-08-04T04:06:00.511Z,59.83
2022-08-04T04:08:39.274Z,60.07
2022-08-04T04:11:16.317Z,59.84
2022-08-04T04:13:47.212Z,59.89
2022-08-04T04:16:06.817Z,59.84
2022-08-04T04:18:43.104Z,59.84
2022-08-04T04:21:23.016Z,59.67
2022-08-04T04:23:50.389Z,59.60
2022-08-04T04:26:15.649Z,59.50
2022-08-04T04:28:45.023Z,59.19
2022-08-04T04:31:01.795Z,59.05
2022-08-04T04:33:24.427Z,58.98
2022-08-04T04:35:37.012Z,58.74
2022-08-04T04:38:06.133Z,58.67
2022-08-04T04:40:27.850Z,58.41
2022-08-04T04:42:46.869Z,58.22
2022-08-04T04:45:20.299Z,58.04
2022-08-04T04:48:07.384Z,58.03
2022-08-04T04:50:02.911Z,57.71
2022-08-04T04:52:12.763Z,57.68
2022-08-04T04:54:24.089Z,57.59
2022-08-04T04:56:36.275Z,57.56
2022-08-04T04:58:40.741Z,57.50
2022-08-04T05:00:57.063Z,57.30
2022-08-04T05:03:21.928Z,57.24
2022-08-04T05:05:53.080Z,57.28
2022-08-04T05:08:44.643Z,57.20
2022-08-04T05:10:59.667Z,57.00
2022-08-04T05:14:36.803Z,57.09
2022-08-04T05:15:51.404Z,57.09
2022-08-04T05:17:56.298Z,57.06
2022-08-04T05:20:06.073Z,56.99
2022-08-04T05:22:14.584Z,57.01
2022-08-04T05:24:19.965Z,56.92
2022-08-04T05:26:30.702Z,56.83
2022-08-04T05:28:37.449Z,56.73
2022-08-04T05:30:46.369Z,56.78
2022-08-04T05:32:59.172Z,56.74
2022-08-04T05:35:08.645Z,56.81
2022-08-04T05:37:15.952Z,57.00
2022-08-04T05:39:21.388Z,57.06
2022-08-04T05:41:44.885Z,57.04
2022-08-04T05:43:49.582Z,56.88
2022-08-04T05:45:53.856Z,56.71
2022-08-04T05:47:56.796Z,56.49
2022-08-04T05:50:03.039Z,56.22
2022-08-04T05:52:08.197Z,55.83
2022-08-04T05:54:12.540Z,55.42
2022-08-04T05:56:15.964Z,55.20
2022-08-04T05:58:20.032Z,54.50
2022-08-04T06:00:40.753Z,53.26
2022-08-04T06:02:45.945Z,51.76
2022-08-04T06:04:51.750Z,51.06
2022-08-04T06:06:54.676Z,50.58
2022-08-04T06:08:58.808Z,50.46
2022-08-04T06:11:07.431Z,50.01
2022-08-04T06:13:49.609Z,49.82
2022-08-04T06:15:40.125Z,49.34
2022-08-04T06:19:56.217Z,49.04
2022-08-04T06:20:22.999Z,48.61
2022-08-04T06:22:28.603Z,48.54
2022-08-04T06:24:34.004Z,48.34
2022-08-04T06:26:37.702Z,48.08
2022-08-04T06:28:42.715Z,47.64
2022-08-04T06:30:47.032Z,47.60
2022-08-04T06:32:50.003Z,47.81
2022-08-04T06:34:55.448Z,47.63
2022-08-04T06:36:59.275Z,47.58
2022-08-04T06:39:02.285Z,47.25
2022-08-04T06:41:05.226Z,46.85
2022-08-04T06:43:08.249Z,46.77
2022-08-04T06:45:13.781Z,46.60
2022-08-04T06:47:16.771Z,46.76
2022-08-04T06:49:20.387Z,46.22
2022-08-04T06:51:35.554Z,46.35
2022-08-04T06:53:44.276Z,46.20
2022-08-04T06:55:48.506Z,46.03
2022-08-04T06:57:52.497Z,45.92
2022-08-04T07:00:00.143Z,45.86
2022-08-04T07:02:03.427Z,45.61
2022-08-04T07:04:06.563Z,45.02
2022-08-04T07:06:14.685Z,45.27
2022-08-04T07:08:18.155Z,44.73
2022-08-04T07:10:22.476Z,44.89
2022-08-04T07:12:25.573Z,43.89
2022-08-04T07:14:30.441Z,44.06
2022-08-04T07:16:35.301Z,44.38
2022-08-04T07:18:37.992Z,44.50
2022-08-04T07:20:42.839Z,43.73
2022-08-04T07:22:48.094Z,43.83
2022-08-04T07:24:57.699Z,44.23
2022-08-04T07:27:00.891Z,44.26
2022-08-04T07:29:03.887Z,44.15
2022-08-04T07:31:10.985Z,43.72
2022-08-04T07:33:33.832Z,43.78
2022-08-04T07:36:09.243Z,43.68
2022-08-04T07:38:01.768Z,43.02
2022-08-04T07:40:07.806Z,43.04
2022-08-04T07:42:10.939Z,42.74
2022-08-04T07:44:15.394Z,42.70
2022-08-04T07:46:18.060Z,42.34
2022-08-04T07:48:20.747Z,42.34
2022-08-04T07:50:24.084Z,42.05
2022-08-04T07:52:27.100Z,42.08
2022-08-04T07:54:30.294Z,42.21
2022-08-04T07:56:34.663Z,42.11
2022-08-04T07:58:37.305Z,41.89
2022-08-04T08:00:40.397Z,41.85
2022-08-04T08:02:44.951Z,41.80
2022-08-04T08:04:48.328Z,41.91
2022-08-04T08:06:51.335Z,41.96
2022-08-04T08:08:55.135Z,41.96
2022-08-04T08:10:58.271Z,42.36
2022-08-04T08:13:01.495Z,42.65
2022-08-04T08:15:06.160Z,42.89
2022-08-04T08:17:11.117Z,42.76
2022-08-04T08:19:14.660Z,43.15
2022-08-04T08:21:20.664Z,43.32
2022-08-04T08:23:23.734Z,43.64
2022-08-04T08:25:30.590Z,43.58
2022-08-04T08:27:33.748Z,43.70
2022-08-04T08:29:38.358Z,43.56
2022-08-04T08:31:58.439Z,43.84
2022-08-04T08:34:02.583Z,43.76
2022-08-04T08:36:12.658Z,43.59
2022-08-04T08:38:17.276Z,43.42
2022-08-04T08:40:40.225Z,43.39
2022-08-04T08:44:03.815Z,43.22
2022-08-04T08:45:57.720Z,43.15
2022-08-04T08:48:40.197Z,42.75
2022-08-04T08:51:13.798Z,42.83
2022-08-04T08:53:44.400Z,42.55
2022-08-04T08:56:01.660Z,42.35
2022-08-04T08:58:27.926Z,41.55
2022-08-04T09:00:45.022Z,41.65
2022-08-04T09:03:20.476Z,41.79
2022-08-04T09:05:39.460Z,41.23
2022-08-04T09:08:01.865Z,40.49
2022-08-04T09:10:11.829Z,40.10
2022-08-04T09:12:25.807Z,40.42
2022-08-04T09:14:41.605Z,40.76
2022-08-04T09:16:51.978Z,40.57
2022-08-04T09:19:01.870Z,40.98
2022-08-04T09:21:12.852Z,40.41
2022-08-04T09:23:23.326Z,39.31
2022-08-04T09:25:33.617Z,39.47
2022-08-04T09:27:45.405Z,39.56
2022-08-04T09:29:57.208Z,39.20
2022-08-04T09:32:08.113Z,39.41
2022-08-04T09:34:17.154Z,38.70
2022-08-04T09:36:31.861Z,37.94
2022-08-04T09:38:41.928Z,37.80
2022-08-04T09:40:53.094Z,36.44
2022-08-04T09:43:08.694Z,36.36
2022-08-04T09:45:26.804Z,36.08
2022-08-04T09:47:48.897Z,35.12
2022-08-04T09:49:57.731Z,34.69
2022-08-04T09:52:09.433Z,33.31
2022-08-04T09:54:30.602Z,33.10
2022-08-04T09:56:41.024Z,34.19
2022-08-04T09:58:53.297Z,34.14
2022-08-04T10:01:01.893Z,33.94
2022-08-04T10:03:04.851Z,33.53
2022-08-04T10:05:13.689Z,33.32
2022-08-04T10:07:39.475Z,33.28
2022-08-04T10:09:51.740Z,33.13
2022-08-04T10:12:07.602Z,33.30
2022-08-04T10:14:31.260Z,32.94
2022-08-04T10:16:45.937Z,32.92
2022-08-04T10:19:07.831Z,33.01
2022-08-04T10:21:18.691Z,32.27
2022-08-04T10:23:55.241Z,32.20
2022-08-04T10:26:14.667Z,32.40
2022-08-04T10:28:21.479Z,32.22
2022-08-04T10:30:25.474Z,32.02
2022-08-04T10:32:33.705Z,32.29
2022-08-04T10:34:43.220Z,32.46
2022-08-04T10:36:53.030Z,32.26
2022-08-04T10:39:03.000Z,32.53
2022-08-04T10:41:12.102Z,32.69
2022-08-04T10:43:31.548Z,32.76
2022-08-04T10:45:39.311Z,32.67
2022-08-04T10:47:53.406Z,32.66
2022-08-04T10:50:00.823Z,32.50
2022-08-04T10:52:10.593Z,31.74
2022-08-04T10:54:18.927Z,31.88
2022-08-04T10:56:34.087Z,32.01
2022-08-04T10:58:48.043Z,31.84
2022-08-04T11:00:55.459Z,31.61
2022-08-04T11:03:08.245Z,31.52
2022-08-04T11:05:20.094Z,31.39
2022-08-04T11:07:23.909Z,31.77
2022-08-04T11:09:27.719Z,31.44
2022-08-04T11:12:01.001Z,31.29
2022-08-04T11:14:01.697Z,31.22
2022-08-04T11:16:16.758Z,31.22
2022-08-04T11:18:39.550Z,31.57
2022-08-04T11:20:49.892Z,31.53
2022-08-04T11:23:02.384Z,31.81
2022-08-04T11:25:12.749Z,31.77
2022-08-04T11:27:19.675Z,31.72
2022-08-04T11:29:27.901Z,31.16
2022-08-04T11:31:34.835Z,31.52
2022-08-04T11:33:45.158Z,31.61
2022-08-04T11:35:56.878Z,31.49
2022-08-04T11:38:08.621Z,30.93
2022-08-04T11:40:18.817Z,31.66
2022-08-04T11:42:23.168Z,31.17
2022-08-04T11:44:32.086Z,30.86
2022-08-04T11:46:40.153Z,31.38
2022-08-04T11:48:52.420Z,31.06
2022-08-04T11:50:56.655Z,30.90
2022-08-04T11:53:00.640Z,31.16
2022-08-04T11:55:07.723Z,30.91
2022-08-04T11:57:10.612Z,31.03
2022-08-04T11:59:14.042Z,30.84
2022-08-04T12:01:34.228Z,30.69
2022-08-04T12:03:45.584Z,30.93
2022-08-04T12:06:17.065Z,30.67
2022-08-04T12:08:32.531Z,30.54
2022-08-04T12:10:56.965Z,30.08
2022-08-04T12:13:17.626Z,29.99
2022-08-04T12:15:25.566Z,30.56
2022-08-04T12:17:53.125Z,30.46
2022-08-04T12:20:05.165Z,30.45
2022-08-04T12:22:31.485Z,30.13
2022-08-04T12:24:46.374Z,30.23
2022-08-04T12:26:53.395Z,31.20
2022-08-04T12:29:16.134Z,30.84
2022-08-04T12:31:25.855Z,30.80
2022-08-04T12:34:03.094Z,31.07
2022-08-04T12:36:11.120Z,30.95
2022-08-04T12:38:14.432Z,31.00
2022-08-04T12:40:29.946Z,30.37
2022-08-04T12:42:56.127Z,30.78
2022-08-04T12:45:08.242Z,30.01
2022-08-04T12:47:27.096Z,30.17
2022-08-04T12:49:34.025Z,30.38
2022-08-04T12:52:07.616Z,30.30
2022-08-04T12:54:03.988Z,29.78
2022-08-04T12:56:08.894Z,30.05
2022-08-04T12:58:42.102Z,30.06
2022-08-04T13:00:42.285Z,30.40
2022-08-04T13:02:46.710Z,30.21
2022-08-04T13:04:51.707Z,30.38
2022-08-04T13:07:01.079Z,30.24
2022-08-04T13:09:06.362Z,30.40
2022-08-04T13:11:14.002Z,30.28
2022-08-04T13:13:18.854Z,30.19
2022-08-04T13:15:23.973Z,30.15
2022-08-04T13:17:41.005Z,30.02
2022-08-04T13:19:47.848Z,30.24
2022-08-04T13:22:02.655Z,30.13
2022-08-04T13:24:20.603Z,30.00
2022-08-04T13:28:59.347Z,29.92
2022-08-04T13:30:24.377Z,29.79
2022-08-04T13:31:05.707Z,29.52
2022-08-04T13:33:08.936Z,30.13
2022-08-04T13:35:12.714Z,29.91
2022-08-04T13:37:20.858Z,29.51
2022-08-04T13:39:25.313Z,29.61
2022-08-04T13:41:31.283Z,29.53
2022-08-04T13:44:16.017Z,29.72
2022-08-04T13:46:05.388Z,29.33
2022-08-04T13:48:15.072Z,29.95
2022-08-04T13:50:36.371Z,30.27
2022-08-04T13:52:39.806Z,30.04
2022-08-04T13:54:44.366Z,29.84
2022-08-04T13:56:49.659Z,29.59
2022-08-04T13:59:01.591Z,30.04
2022-08-04T14:01:09.256Z,29.43
2022-08-04T14:03:24.222Z,29.00
2022-08-04T14:05:35.108Z,29.31
2022-08-04T14:07:46.283Z,29.47
2022-08-04T14:10:03.765Z,29.50
2022-08-04T14:12:45.721Z,29.51
2022-08-04T14:14:34.188Z,29.67
2022-08-04T14:16:36.798Z,29.82
2022-08-04T14:18:39.387Z,29.78
2022-08-04T14:20:57.930Z,29.75
2022-08-04T14:23:00.973Z,30.26
2022-08-04T14:25:08.523Z,29.88
2022-08-04T14:27:17.937Z,29.67
2022-08-04T14:29:27.077Z,29.68
2022-08-04T14:31:31.709Z,29.27
2022-08-04T14:34:01.838Z,29.65
2022-08-04T14:36:04.290Z,29.64
2022-08-04T14:38:09.576Z,29.83
2022-08-04T14:40:31.228Z,29.59
2022-08-04T14:42:54.823Z,29.42
2022-08-04T14:44:59.433Z,29.83
2022-08-04T14:47:05.552Z,29.84
2022-08-04T14:49:16.304Z,29.65
2022-08-04T14:51:26.213Z,29.85
2022-08-04T14:53:38.821Z,29.71
2022-08-04T14:55:44.917Z,29.89
2022-08-04T14:58:32.809Z,29.72
2022-08-04T15:00:15.818Z,28.96
2022-08-04T15:02:21.546Z,29.28
2022-08-04T15:04:26.514Z,29.41
2022-08-04T15:06:31.591Z,29.19
2022-08-04T15:08:34.419Z,29.53
2022-08-04T15:10:37.123Z,29.53
2022-08-04T15:12:39.945Z,29.87
2022-08-04T15:14:42.826Z,30.09
2022-08-04T15:16:53.956Z,30.07
2022-08-04T15:18:57.865Z,30.19
2022-08-04T15:21:04.586Z,30.42
2022-08-04T15:23:10.608Z,30.31
2022-08-04T15:25:15.471Z,30.30
2022-08-04T15:27:21.060Z,30.30
2022-08-04T15:29:29.935Z,30.32
2022-08-04T15:32:06.354Z,30.21
2022-08-04T15:34:12.325Z,30.13
2022-08-04T15:36:25.803Z,30.03
2022-08-04T15:38:38.172Z,30.11
2022-08-04T15:40:46.973Z,29.89
2022-08-04T15:43:08.728Z,30.32
2022-08-04T15:45:20.823Z,30.01
2022-08-04T15:47:24.529Z,30.12
2022-08-04T15:49:27.301Z,30.14
2022-08-04T15:51:32.147Z,29.93
2022-08-04T15:54:16.909Z,30.07
2022-08-04T15:56:48.549Z,30.01
2022-08-04T15:59:05.631Z,29.83
2022-08-04T16:01:15.281Z,30.29
2022-08-04T16:04:00.145Z,30.51
2022-08-04T16:06:42.952Z,30.12
2022-08-04T16:08:58.948Z,30.05
2022-08-04T16:11:01.590Z,30.51
2022-08-04T16:13:07.266Z,30.43
2022-08-04T16:15:38.103Z,30.52
2022-08-04T16:17:41.304Z,29.58
2022-08-04T16:19:56.778Z,29.63
2022-08-04T16:22:01.231Z,29.75
2022-08-04T16:24:15.991Z,29.86
2022-08-04T16:26:45.823Z,30.20
2022-08-04T16:28:49.014Z,30.04
2022-08-04T16:31:00.290Z,30.58
2022-08-04T16:33:08.590Z,30.74
2022-08-04T16:35:25.632Z,30.90
2022-08-04T16:37:33.374Z,30.46
2022-08-04T16:39:51.108Z,30.86
2022-08-04T16:41:54.940Z,30.39
2022-08-04T16:44:51.510Z,30.62
2022-08-04T16:47:08.129Z,30.34
2022-08-04T16:49:12.745Z,30.62
2022-08-04T16:51:15.596Z,30.82
2022-08-04T16:53:52.347Z,30.59
2022-08-04T16:55:47.073Z,30.80
2022-08-04T16:57:50.716Z,30.64
2022-08-04T16:59:53.568Z,30.44
2022-08-04T17:01:56.357Z,31.12
2022-08-04T17:03:59.147Z,30.92
2022-08-04T17:06:10.556Z,30.55
2022-08-04T17:08:29.797Z,30.93
2022-08-04T17:10:36.234Z,30.94
2022-08-04T17:12:38.781Z,30.97
2022-08-04T17:14:41.382Z,30.87
2022-08-04T17:16:47.790Z,30.99
2022-08-04T17:19:02.098Z,31.30
2022-08-04T17:21:09.696Z,31.02
2022-08-04T17:24:15.195Z,31.01
2022-08-04T17:25:58.233Z,31.08
2022-08-04T17:28:18.373Z,31.22
2022-08-04T17:30:30.037Z,31.30
2022-08-04T17:32:35.847Z,31.39
2022-08-04T17:34:49.063Z,31.47
2022-08-04T17:37:03.028Z,31.50
2022-08-04T17:39:21.485Z,31.53
2022-08-04T17:41:30.468Z,31.83
2022-08-04T17:44:04.882Z,31.88
2022-08-04T17:46:35.265Z,31.91
2022-08-04T17:48:42.736Z,32.15
2022-08-04T17:50:47.612Z,32.26
2022-08-04T17:53:02.007Z,32.13
2022-08-04T17:55:20.403Z,32.16
2022-08-04T17:57:25.834Z,32.31
2022-08-04T17:59:55.786Z,32.39
2022-08-04T18:02:05.702Z,32.45
2022-08-04T18:04:30.464Z,32.43
2022-08-04T18:06:35.748Z,32.63
2022-08-04T18:08:45.999Z,32.80
2022-08-04T18:10:56.789Z,32.84
2022-08-04T18:13:13.983Z,32.92
2022-08-04T18:15:24.335Z,32.92
2022-08-04T18:18:22.177Z,33.06
2022-08-04T18:20:04.329Z,33.24
2022-08-04T18:22:14.365Z,33.10
2022-08-04T18:24:55.684Z,33.06
2022-08-04T18:26:59.468Z,32.98
2022-08-04T18:29:05.030Z,33.03
2022-08-04T18:31:09.946Z,33.27
2022-08-04T18:33:37.832Z,33.25
2022-08-04T18:36:34.099Z,33.34
2022-08-04T18:38:22.608Z,33.47
2022-08-04T18:40:36.761Z,33.45
2022-08-04T18:42:53.495Z,33.59
2022-08-04T18:44:58.349Z,33.59
2022-08-04T18:47:22.531Z,33.64
2022-08-04T18:50:39.987Z,33.58
2022-08-04T18:51:55.009Z,33.55
2022-08-04T18:54:00.020Z,33.70
2022-08-04T18:56:06.247Z,33.55
2022-08-04T18:58:26.729Z,33.76
2022-08-04T19:00:32.772Z,33.77
2022-08-04T19:02:39.832Z,33.86
2022-08-04T19:04:49.646Z,34.13
2022-08-04T19:06:58.559Z,34.23
2022-08-04T19:09:23.584Z,34.14
2022-08-04T19:11:55.323Z,34.22
2022-08-04T19:14:01.777Z,34.40
2022-08-04T19:16:07.122Z,34.75
2022-08-04T19:18:22.097Z,34.69
2022-08-04T19:20:29.438Z,34.93
2022-08-04T19:22:35.504Z,34.83
2022-08-04T19:24:41.506Z,34.84
2022-08-04T19:26:55.119Z,34.67
2022-08-04T19:29:00.227Z,35.07
2022-08-04T19:31:07.093Z,34.69
2022-08-04T19:33:12.558Z,34.84
2022-08-04T19:35:17.859Z,34.87
2022-08-04T19:37:58.478Z,34.92
2022-08-04T19:39:48.851Z,35.05
2022-08-04T19:42:05.932Z,35.04
2022-08-04T19:44:11.840Z,34.76
2022-08-04T19:46:17.733Z,34.91
2022-08-04T19:48:25.360Z,35.10
2022-08-04T19:50:33.677Z,35.08
2022-08-04T19:52:38.904Z,35.05
2022-08-04T19:54:43.860Z,35.18
2022-08-04T19:56:54.387Z,35.41
2022-08-04T19:59:00.795Z,35.53
2022-08-04T20:01:31.204Z,35.68
2022-08-04T20:04:09.719Z,35.66
2022-08-04T20:05:57.206Z,35.70
2022-08-04T20:08:04.940Z,35.87
2022-08-04T20:10:13.075Z,36.06
2022-08-04T20:12:18.539Z,36.04
2022-08-04T20:14:32.737Z,36.12
2022-08-04T20:16:39.180Z,36.54
2022-08-04T20:18:55.695Z,36.47
2022-08-04T20:21:18.872Z,36.50
2022-08-04T20:23:28.740Z,36.76
2022-08-04T20:25:49.801Z,36.72
2022-08-04T20:28:00.558Z,36.86
2022-08-04T20:30:14.000Z,37.08
2022-08-04T20:32:25.779Z,37.13
2022-08-04T20:34:30.979Z,37.03
2022-08-04T20:36:38.239Z,37.50
2022-08-04T20:38:54.978Z,37.46
2022-08-04T20:41:03.553Z,37.59
2022-08-04T20:43:08.919Z,37.73
2022-08-04T20:45:16.395Z,37.84
2022-08-04T20:47:22.333Z,38.08
2022-08-04T20:49:34.857Z,37.94
2022-08-04T20:51:42.481Z,38.16
2022-08-04T20:53:53.291Z,38.20
2022-08-04T20:55:58.908Z,38.05
2022-08-04T20:58:04.518Z,38.26
2022-08-04T21:00:13.278Z,38.47
2022-08-04T21:02:18.520Z,38.69
2022-08-04T21:04:28.144Z,38.40
2022-08-04T21:06:33.658Z,38.67
2022-08-04T21:08:38.636Z,38.76
2022-08-04T21:10:47.415Z,38.84
2022-08-04T21:12:53.209Z,39.14
2022-08-04T21:14:58.593Z,39.32
2022-08-04T21:17:04.086Z,39.16
2022-08-04T21:19:13.546Z,39.46
2022-08-04T21:21:18.864Z,39.58
2022-08-04T21:23:23.731Z,39.72
2022-08-04T21:25:29.261Z,39.91
2022-08-04T21:27:39.360Z,40.05
2022-08-04T21:29:44.525Z,40.30
2022-08-04T21:31:53.335Z,40.35
2022-08-04T21:33:58.321Z,40.39
2022-08-04T21:36:03.644Z,40.47
2022-08-04T21:38:17.642Z,40.75
2022-08-04T21:40:32.753Z,40.84
2022-08-04T21:42:42.573Z,40.91
2022-08-04T21:44:54.674Z,41.10
2022-08-04T21:46:59.508Z,41.07
2022-08-04T21:49:04.970Z,41.23
2022-08-04T21:51:56.855Z,41.31
2022-08-04T21:53:43.974Z,41.45
2022-08-04T21:56:06.513Z,41.57
2022-08-04T21:58:13.397Z,41.76
2022-08-04T22:00:20.166Z,41.93
2022-08-04T22:02:26.513Z,42.07
2022-08-04T22:04:32.471Z,42.27
2022-08-04T22:06:37.306Z,42.15
2022-08-04T22:08:49.160Z,42.25
2022-08-04T22:10:54.461Z,42.36
2022-08-04T22:13:06.986Z,42.49
2022-08-04T22:16:03.037Z,42.70
2022-08-04T22:17:37.800Z,43.01
2022-08-04T22:19:56.259Z,43.15
2022-08-04T22:22:01.362Z,43.35
2022-08-04T22:24:07.575Z,43.55
2022-08-04T22:26:26.803Z,43.71
2022-08-04T22:28:31.976Z,43.99
2022-08-04T22:30:38.694Z,44.04
2022-08-04T22:32:53.340Z,44.36
2022-08-04T22:35:03.002Z,44.44
2022-08-04T22:37:35.477Z,44.49
2022-08-04T22:39:56.726Z,44.79
2022-08-04T22:42:03.746Z,44.83
2022-08-04T22:44:15.374Z,45.00
2022-08-04T22:46:26.079Z,45.14
2022-08-04T22:48:31.998Z,45.15
2022-08-04T22:50:37.200Z,45.35
2022-08-04T22:52:55.882Z,45.38
2022-08-04T22:55:01.330Z,45.30
2022-08-04T22:57:07.454Z,45.52
2022-08-04T22:59:13.354Z,45.66
2022-08-04T23:01:18.796Z,45.89
2022-08-04T23:03:37.819Z,46.00
2022-08-04T23:05:44.218Z,45.82
2022-08-04T23:07:54.286Z,45.95
2022-08-04T23:10:01.115Z,46.20
2022-08-04T23:12:24.434Z,46.09
2022-08-04T23:14:31.144Z,46.17
2022-08-04T23:16:40.849Z,46.38
2022-08-04T23:18:48.976Z,46.31
2022-08-04T23:20:53.980Z,46.41
2022-08-04T23:22:58.944Z,46.49
2022-08-04T23:25:17.754Z,46.48
2022-08-04T23:27:22.749Z,46.60
2022-08-04T23:29:27.779Z,46.67
2022-08-04T23:31:59.886Z,46.83
2022-08-04T23:34:05.284Z,46.90
2022-08-04T23:36:13.216Z,46.92
2022-08-04T23:38:18.483Z,46.95
2022-08-04T23:40:50.297Z,47.05
2022-08-04T23:42:55.652Z,47.08
2022-08-04T23:45:00.516Z,47.28
2022-08-04T23:47:05.812Z,47.18
2022-08-04T23:49:11.845Z,47.32
2022-08-04T23:51:21.874Z,47.45
2022-08-04T23:53:26.686Z,47.26
2022-08-04T23:55:31.808Z,47.40
2022-08-04T23:58:05.893Z,47.54
